sensor_id;sensor_type;location;lat;lon;timestamp;temperature;humidity
262;DHT22;114;48.260;10.988;2023-07-22T00:02:22;13.50;91.40
262;DHT22;114;48.260;10.988;2023-07-22T00:04:49;13.50;92.20
262;DHT22;114;48.260;10.988;2023-07-22T00:07:16;13.50;92.90
262;DHT22;114;48.260;10.988;2023-07-22T00:09:42;13.60;93.70
262;DHT22;114;48.260;10.988;2023-07-22T00:12:08;13.60;94.30
262;DHT22;114;48.260;10.988;2023-07-22T00:14:40;13.60;94.80
262;DHT22;114;48.260;10.988;2023-07-22T00:17:06;13.60;95.50
262;DHT22;114;48.260;10.988;2023-07-22T00:19:33;13.60;95.80
262;DHT22;114;48.260;10.988;2023-07-22T00:21:59;13.50;95.90
262;DHT22;114;48.260;10.988;2023-07-22T00:24:25;13.40;96.40
262;DHT22;114;48.260;10.988;2023-07-22T00:26:51;13.40;97.00
262;DHT22;114;48.260;10.988;2023-07-22T00:29:17;13.30;97.90
262;DHT22;114;48.260;10.988;2023-07-22T00:31:42;13.30;98.20
262;DHT22;114;48.260;10.988;2023-07-22T00:34:09;13.30;98.80
262;DHT22;114;48.260;10.988;2023-07-22T00:36:34;13.30;99.40
262;DHT22;114;48.260;10.988;2023-07-22T00:39:02;13.20;99.90
262;DHT22;114;48.260;10.988;2023-07-22T00:41:30;13.20;99.90
262;DHT22;114;48.260;10.988;2023-07-22T00:43:57;13.10;99.90
262;DHT22;114;48.260;10.988;2023-07-22T00:46:23;13.10;99.90
262;DHT22;114;48.260;10.988;2023-07-22T00:48:50;13.00;99.90
262;DHT22;114;48.260;10.988;2023-07-22T00:51:17;13.00;99.90
262;DHT22;114;48.260;10.988;2023-07-22T00:53:42;12.90;99.90
262;DHT22;114;48.260;10.988;2023-07-22T00:56:08;12.90;99.90
262;DHT22;114;48.260;10.988;2023-07-22T00:58:34;12.90;99.90
262;DHT22;114;48.260;10.988;2023-07-22T01:01:00;12.90;99.90
262;DHT22;114;48.260;10.988;2023-07-22T01:03:26;12.90;99.90
262;DHT22;114;48.260;10.988;2023-07-22T01:05:52;12.80;99.90
262;DHT22;114;48.260;10.988;2023-07-22T01:08:19;12.80;99.90
262;DHT22;114;48.260;10.988;2023-07-22T01:10:45;12.80;99.90
262;DHT22;114;48.260;10.988;2023-07-22T01:13:10;12.70;99.90
262;DHT22;114;48.260;10.988;2023-07-22T01:15:36;12.80;99.90
262;DHT22;114;48.260;10.988;2023-07-22T01:18:03;12.90;99.90
262;DHT22;114;48.260;10.988;2023-07-22T01:20:30;12.90;99.90
262;DHT22;114;48.260;10.988;2023-07-22T01:22:55;13.00;99.90
262;DHT22;114;48.260;10.988;2023-07-22T01:25:22;12.90;99.90
262;DHT22;114;48.260;10.988;2023-07-22T01:27:49;12.80;99.90
262;DHT22;114;48.260;10.988;2023-07-22T01:30:15;12.70;99.90
262;DHT22;114;48.260;10.988;2023-07-22T01:32:41;12.70;99.90
262;DHT22;114;48.260;10.988;2023-07-22T01:35:08;12.60;99.90
262;DHT22;114;48.260;10.988;2023-07-22T01:37:34;12.70;99.90
262;DHT22;114;48.260;10.988;2023-07-22T01:40:00;12.60;99.90
262;DHT22;114;48.260;10.988;2023-07-22T01:42:27;12.50;99.90
262;DHT22;114;48.260;10.988;2023-07-22T01:44:53;12.40;99.90
262;DHT22;114;48.260;10.988;2023-07-22T01:47:19;12.40;99.90
262;DHT22;114;48.260;10.988;2023-07-22T01:49:44;12.40;99.90
262;DHT22;114;48.260;10.988;2023-07-22T01:52:10;12.40;99.90
262;DHT22;114;48.260;10.988;2023-07-22T01:54:36;12.40;99.90
262;DHT22;114;48.260;10.988;2023-07-22T01:57:02;12.30;99.90
262;DHT22;114;48.260;10.988;2023-07-22T01:59:28;12.30;99.90
262;DHT22;114;48.260;10.988;2023-07-22T02:01:53;12.20;99.90
262;DHT22;114;48.260;10.988;2023-07-22T02:04:19;12.20;99.90
262;DHT22;114;48.260;10.988;2023-07-22T02:06:45;12.10;99.90
262;DHT22;114;48.260;10.988;2023-07-22T02:09:11;12.10;99.90
262;DHT22;114;48.260;10.988;2023-07-22T02:11:39;12.10;99.90
262;DHT22;114;48.260;10.988;2023-07-22T02:14:05;12.00;99.90
262;DHT22;114;48.260;10.988;2023-07-22T02:16:34;12.00;99.90
262;DHT22;114;48.260;10.988;2023-07-22T02:19:00;11.90;99.90
262;DHT22;114;48.260;10.988;2023-07-22T02:21:26;11.90;99.90
262;DHT22;114;48.260;10.988;2023-07-22T02:23:53;11.80;99.90
262;DHT22;114;48.260;10.988;2023-07-22T02:26:19;11.80;99.90
262;DHT22;114;48.260;10.988;2023-07-22T02:28:45;11.70;99.90
262;DHT22;114;48.260;10.988;2023-07-22T02:31:12;11.70;99.90
262;DHT22;114;48.260;10.988;2023-07-22T02:33:38;11.60;99.90
262;DHT22;114;48.260;10.988;2023-07-22T02:36:04;11.50;99.90
262;DHT22;114;48.260;10.988;2023-07-22T02:38:30;11.50;99.90
262;DHT22;114;48.260;10.988;2023-07-22T02:41:01;11.50;99.90
262;DHT22;114;48.260;10.988;2023-07-22T02:43:27;11.50;99.90
262;DHT22;114;48.260;10.988;2023-07-22T02:45:53;11.50;99.90
262;DHT22;114;48.260;10.988;2023-07-22T02:48:19;11.50;99.90
262;DHT22;114;48.260;10.988;2023-07-22T02:50:44;11.50;99.90
262;DHT22;114;48.260;10.988;2023-07-22T02:53:11;11.50;99.90
262;DHT22;114;48.260;10.988;2023-07-22T02:55:37;11.50;99.90
262;DHT22;114;48.260;10.988;2023-07-22T02:58:02;11.40;99.90
262;DHT22;114;48.260;10.988;2023-07-22T03:00:28;11.40;99.90
262;DHT22;114;48.260;10.988;2023-07-22T03:02:56;11.40;99.90
262;DHT22;114;48.260;10.988;2023-07-22T03:05:31;11.40;99.90
262;DHT22;114;48.260;10.988;2023-07-22T03:07:58;11.30;99.90
262;DHT22;114;48.260;10.988;2023-07-22T03:10:24;11.30;99.90
262;DHT22;114;48.260;10.988;2023-07-22T03:12:55;11.30;99.90
262;DHT22;114;48.260;10.988;2023-07-22T03:15:22;11.20;99.90
262;DHT22;114;48.260;10.988;2023-07-22T03:17:48;11.20;99.90
262;DHT22;114;48.260;10.988;2023-07-22T03:20:14;11.20;99.90
262;DHT22;114;48.260;10.988;2023-07-22T03:22:42;11.20;99.90
262;DHT22;114;48.260;10.988;2023-07-22T03:25:11;11.20;99.90
262;DHT22;114;48.260;10.988;2023-07-22T03:27:38;11.20;99.90
262;DHT22;114;48.260;10.988;2023-07-22T03:30:05;11.20;99.90
262;DHT22;114;48.260;10.988;2023-07-22T03:32:33;11.10;99.90
262;DHT22;114;48.260;10.988;2023-07-22T03:34:59;11.10;99.90
262;DHT22;114;48.260;10.988;2023-07-22T03:37:25;11.10;99.90
262;DHT22;114;48.260;10.988;2023-07-22T03:39:50;11.00;99.90
262;DHT22;114;48.260;10.988;2023-07-22T03:42:16;11.00;99.90
262;DHT22;114;48.260;10.988;2023-07-22T03:44:42;10.90;99.90
262;DHT22;114;48.260;10.988;2023-07-22T03:47:08;10.90;99.90
262;DHT22;114;48.260;10.988;2023-07-22T03:49:33;10.90;99.90
262;DHT22;114;48.260;10.988;2023-07-22T03:51:59;10.90;99.90
262;DHT22;114;48.260;10.988;2023-07-22T03:54:25;10.90;99.90
262;DHT22;114;48.260;10.988;2023-07-22T03:56:51;11.00;99.90
262;DHT22;114;48.260;10.988;2023-07-22T03:59:16;11.00;99.90
262;DHT22;114;48.260;10.988;2023-07-22T04:01:42;11.10;99.90
262;DHT22;114;48.260;10.988;2023-07-22T04:04:08;11.10;99.90
262;DHT22;114;48.260;10.988;2023-07-22T04:06:34;11.00;99.90
262;DHT22;114;48.260;10.988;2023-07-22T04:09:00;11.00;99.90
262;DHT22;114;48.260;10.988;2023-07-22T04:11:26;11.00;99.90
262;DHT22;114;48.260;10.988;2023-07-22T04:13:53;11.00;99.90
262;DHT22;114;48.260;10.988;2023-07-22T04:16:18;11.10;99.90
262;DHT22;114;48.260;10.988;2023-07-22T04:18:44;11.10;99.90
262;DHT22;114;48.260;10.988;2023-07-22T04:21:10;11.20;99.90
262;DHT22;114;48.260;10.988;2023-07-22T04:23:36;11.20;99.90
262;DHT22;114;48.260;10.988;2023-07-22T04:26:03;11.30;99.90
262;DHT22;114;48.260;10.988;2023-07-22T04:28:33;11.40;99.90
262;DHT22;114;48.260;10.988;2023-07-22T04:31:00;11.50;99.90
262;DHT22;114;48.260;10.988;2023-07-22T04:33:26;11.60;99.90
262;DHT22;114;48.260;10.988;2023-07-22T04:35:58;11.60;99.90
262;DHT22;114;48.260;10.988;2023-07-22T04:38:24;11.80;99.90
262;DHT22;114;48.260;10.988;2023-07-22T04:40:50;11.90;99.90
262;DHT22;114;48.260;10.988;2023-07-22T04:43:16;12.00;99.90
262;DHT22;114;48.260;10.988;2023-07-22T04:45:44;12.10;99.90
262;DHT22;114;48.260;10.988;2023-07-22T04:48:14;12.20;99.90
262;DHT22;114;48.260;10.988;2023-07-22T04:50:48;12.30;99.90
262;DHT22;114;48.260;10.988;2023-07-22T04:53:14;12.40;99.90
262;DHT22;114;48.260;10.988;2023-07-22T04:55:41;12.50;99.90
262;DHT22;114;48.260;10.988;2023-07-22T04:58:07;12.60;99.90
262;DHT22;114;48.260;10.988;2023-07-22T05:00:34;12.60;99.90
262;DHT22;114;48.260;10.988;2023-07-22T05:03:00;12.70;99.90
262;DHT22;114;48.260;10.988;2023-07-22T05:05:26;12.70;99.90
262;DHT22;114;48.260;10.988;2023-07-22T05:07:52;12.80;99.90
262;DHT22;114;48.260;10.988;2023-07-22T05:10:18;12.80;99.90
262;DHT22;114;48.260;10.988;2023-07-22T05:12:45;12.90;99.90
262;DHT22;114;48.260;10.988;2023-07-22T05:15:12;13.10;99.90
262;DHT22;114;48.260;10.988;2023-07-22T05:17:39;13.30;99.90
262;DHT22;114;48.260;10.988;2023-07-22T05:20:05;13.40;99.90
262;DHT22;114;48.260;10.988;2023-07-22T05:22:38;13.40;99.90
262;DHT22;114;48.260;10.988;2023-07-22T05:25:05;13.50;99.90
262;DHT22;114;48.260;10.988;2023-07-22T05:27:31;13.70;99.90
262;DHT22;114;48.260;10.988;2023-07-22T05:29:57;13.90;99.90
262;DHT22;114;48.260;10.988;2023-07-22T05:32:23;13.90;99.90
262;DHT22;114;48.260;10.988;2023-07-22T05:34:49;14.10;99.20
262;DHT22;114;48.260;10.988;2023-07-22T05:37:14;14.30;98.10
262;DHT22;114;48.260;10.988;2023-07-22T05:39:42;14.40;95.30
262;DHT22;114;48.260;10.988;2023-07-22T05:42:08;14.70;94.70
262;DHT22;114;48.260;10.988;2023-07-22T05:44:34;14.80;92.00
262;DHT22;114;48.260;10.988;2023-07-22T05:46:59;15.00;77.90
262;DHT22;114;48.260;10.988;2023-07-22T05:49:25;15.20;72.30
262;DHT22;114;48.260;10.988;2023-07-22T05:51:51;15.50;67.50
262;DHT22;114;48.260;10.988;2023-07-22T05:54:17;15.50;65.40
262;DHT22;114;48.260;10.988;2023-07-22T05:56:43;15.70;62.70
262;DHT22;114;48.260;10.988;2023-07-22T05:59:08;15.70;58.80
262;DHT22;114;48.260;10.988;2023-07-22T06:01:34;15.80;56.40
262;DHT22;114;48.260;10.988;2023-07-22T06:04:00;15.80;56.60
262;DHT22;114;48.260;10.988;2023-07-22T06:06:26;15.80;58.30
262;DHT22;114;48.260;10.988;2023-07-22T06:08:52;15.90;52.90
262;DHT22;114;48.260;10.988;2023-07-22T06:11:18;15.80;50.10
262;DHT22;114;48.260;10.988;2023-07-22T06:13:44;15.80;50.20
262;DHT22;114;48.260;10.988;2023-07-22T06:16:09;15.90;47.00
262;DHT22;114;48.260;10.988;2023-07-22T06:18:35;16.10;42.10
262;DHT22;114;48.260;10.988;2023-07-22T06:21:01;16.30;42.10
262;DHT22;114;48.260;10.988;2023-07-22T06:23:27;16.50;37.70
262;DHT22;114;48.260;10.988;2023-07-22T06:25:52;16.70;32.50
262;DHT22;114;48.260;10.988;2023-07-22T06:28:18;16.80;29.80
262;DHT22;114;48.260;10.988;2023-07-22T06:30:44;16.90;27.70
262;DHT22;114;48.260;10.988;2023-07-22T06:33:10;17.10;27.10
262;DHT22;114;48.260;10.988;2023-07-22T06:35:35;17.20;26.30
262;DHT22;114;48.260;10.988;2023-07-22T06:38:01;17.30;25.20
262;DHT22;114;48.260;10.988;2023-07-22T06:40:27;17.60;22.90
262;DHT22;114;48.260;10.988;2023-07-22T06:42:52;17.90;16.50
262;DHT22;114;48.260;10.988;2023-07-22T06:45:19;18.00;13.90
262;DHT22;114;48.260;10.988;2023-07-22T06:47:44;18.10;11.70
262;DHT22;114;48.260;10.988;2023-07-22T06:50:10;18.30;9.80
262;DHT22;114;48.260;10.988;2023-07-22T06:52:36;18.00;8.30
262;DHT22;114;48.260;10.988;2023-07-22T06:55:02;18.20;8.60
262;DHT22;114;48.260;10.988;2023-07-22T06:57:29;18.40;8.40
262;DHT22;114;48.260;10.988;2023-07-22T06:59:55;18.50;5.90
262;DHT22;114;48.260;10.988;2023-07-22T07:02:21;18.70;4.50
262;DHT22;114;48.260;10.988;2023-07-22T07:04:48;18.80;2.30
262;DHT22;114;48.260;10.988;2023-07-22T07:07:14;18.70;3.00
262;DHT22;114;48.260;10.988;2023-07-22T07:09:40;18.90;1.00
262;DHT22;114;48.260;10.988;2023-07-22T07:12:06;18.90;1.20
262;DHT22;114;48.260;10.988;2023-07-22T07:14:35;19.10;1.00
262;DHT22;114;48.260;10.988;2023-07-22T07:17:01;19.10;1.00
262;DHT22;114;48.260;10.988;2023-07-22T07:19:27;18.90;1.00
262;DHT22;114;48.260;10.988;2023-07-22T07:21:53;18.90;1.00
262;DHT22;114;48.260;10.988;2023-07-22T07:24:19;18.90;1.00
262;DHT22;114;48.260;10.988;2023-07-22T07:26:45;19.40;1.00
262;DHT22;114;48.260;10.988;2023-07-22T07:29:11;19.30;1.00
262;DHT22;114;48.260;10.988;2023-07-22T07:31:38;19.20;1.00
262;DHT22;114;48.260;10.988;2023-07-22T07:34:04;19.60;1.00
262;DHT22;114;48.260;10.988;2023-07-22T07:36:29;19.80;1.00
262;DHT22;114;48.260;10.988;2023-07-22T07:38:55;19.70;1.00
262;DHT22;114;48.260;10.988;2023-07-22T07:41:21;19.50;1.00
262;DHT22;114;48.260;10.988;2023-07-22T07:43:47;19.50;1.00
262;DHT22;114;48.260;10.988;2023-07-22T07:46:19;19.70;1.00
262;DHT22;114;48.260;10.988;2023-07-22T07:48:48;19.70;1.00
262;DHT22;114;48.260;10.988;2023-07-22T07:51:15;19.90;1.00
262;DHT22;114;48.260;10.988;2023-07-22T07:53:42;20.30;1.00
262;DHT22;114;48.260;10.988;2023-07-22T07:56:09;20.20;1.00
262;DHT22;114;48.260;10.988;2023-07-22T07:58:36;20.50;1.00
262;DHT22;114;48.260;10.988;2023-07-22T08:01:01;20.50;1.00
262;DHT22;114;48.260;10.988;2023-07-22T08:03:27;20.40;1.00
262;DHT22;114;48.260;10.988;2023-07-22T08:05:53;20.60;1.00
262;DHT22;114;48.260;10.988;2023-07-22T08:08:21;20.70;1.00
262;DHT22;114;48.260;10.988;2023-07-22T08:10:47;20.90;1.00
262;DHT22;114;48.260;10.988;2023-07-22T08:13:14;21.20;1.00
262;DHT22;114;48.260;10.988;2023-07-22T08:15:40;21.40;1.00
262;DHT22;114;48.260;10.988;2023-07-22T08:18:07;21.30;1.00
262;DHT22;114;48.260;10.988;2023-07-22T08:20:33;21.00;1.00
262;DHT22;114;48.260;10.988;2023-07-22T08:22:58;20.70;1.00
262;DHT22;114;48.260;10.988;2023-07-22T08:25:24;20.50;1.00
262;DHT22;114;48.260;10.988;2023-07-22T08:27:50;20.60;1.00
262;DHT22;114;48.260;10.988;2023-07-22T08:30:15;20.50;1.00
262;DHT22;114;48.260;10.988;2023-07-22T08:32:41;20.60;1.00
262;DHT22;114;48.260;10.988;2023-07-22T08:35:07;20.90;1.00
262;DHT22;114;48.260;10.988;2023-07-22T08:37:33;21.10;1.00
262;DHT22;114;48.260;10.988;2023-07-22T08:39:58;21.00;1.00
262;DHT22;114;48.260;10.988;2023-07-22T08:42:25;20.70;1.00
262;DHT22;114;48.260;10.988;2023-07-22T08:44:56;20.50;1.00
262;DHT22;114;48.260;10.988;2023-07-22T08:47:24;20.30;1.00
262;DHT22;114;48.260;10.988;2023-07-22T08:49:56;20.60;1.00
262;DHT22;114;48.260;10.988;2023-07-22T08:52:23;21.10;1.00
262;DHT22;114;48.260;10.988;2023-07-22T08:54:49;21.30;1.00
262;DHT22;114;48.260;10.988;2023-07-22T08:57:15;21.60;1.00
262;DHT22;114;48.260;10.988;2023-07-22T08:59:43;21.90;1.00
262;DHT22;114;48.260;10.988;2023-07-22T09:02:13;21.90;1.00
262;DHT22;114;48.260;10.988;2023-07-22T09:04:40;22.00;1.00
262;DHT22;114;48.260;10.988;2023-07-22T09:07:10;21.90;1.00
262;DHT22;114;48.260;10.988;2023-07-22T09:09:37;21.60;1.00
262;DHT22;114;48.260;10.988;2023-07-22T09:12:03;22.10;1.00
262;DHT22;114;48.260;10.988;2023-07-22T09:14:31;22.20;1.00
262;DHT22;114;48.260;10.988;2023-07-22T09:16:58;21.90;1.00
262;DHT22;114;48.260;10.988;2023-07-22T09:19:23;22.00;1.00
262;DHT22;114;48.260;10.988;2023-07-22T09:21:49;21.70;1.00
262;DHT22;114;48.260;10.988;2023-07-22T09:24:24;21.60;1.00
262;DHT22;114;48.260;10.988;2023-07-22T09:26:50;21.60;1.00
262;DHT22;114;48.260;10.988;2023-07-22T09:29:16;21.90;1.00
262;DHT22;114;48.260;10.988;2023-07-22T09:31:52;22.30;1.00
262;DHT22;114;48.260;10.988;2023-07-22T09:34:18;22.40;1.00
262;DHT22;114;48.260;10.988;2023-07-22T09:36:55;22.10;1.00
262;DHT22;114;48.260;10.988;2023-07-22T09:39:23;21.80;1.00
262;DHT22;114;48.260;10.988;2023-07-22T09:41:49;22.10;1.00
262;DHT22;114;48.260;10.988;2023-07-22T09:44:15;22.50;1.00
262;DHT22;114;48.260;10.988;2023-07-22T09:46:41;22.60;1.00
262;DHT22;114;48.260;10.988;2023-07-22T09:49:09;22.10;1.00
262;DHT22;114;48.260;10.988;2023-07-22T09:51:38;21.90;1.00
262;DHT22;114;48.260;10.988;2023-07-22T09:54:04;21.80;1.00
262;DHT22;114;48.260;10.988;2023-07-22T09:56:31;22.10;1.00
262;DHT22;114;48.260;10.988;2023-07-22T09:59:04;22.30;1.00
262;DHT22;114;48.260;10.988;2023-07-22T10:01:32;22.60;1.00
262;DHT22;114;48.260;10.988;2023-07-22T10:03:59;23.20;1.00
262;DHT22;114;48.260;10.988;2023-07-22T10:06:28;23.40;1.00
262;DHT22;114;48.260;10.988;2023-07-22T10:08:56;23.60;1.00
262;DHT22;114;48.260;10.988;2023-07-22T10:11:24;23.50;1.00
262;DHT22;114;48.260;10.988;2023-07-22T10:13:52;23.40;1.00
262;DHT22;114;48.260;10.988;2023-07-22T10:16:18;23.00;1.00
262;DHT22;114;48.260;10.988;2023-07-22T10:18:45;23.30;1.00
262;DHT22;114;48.260;10.988;2023-07-22T10:21:13;23.50;1.00
262;DHT22;114;48.260;10.988;2023-07-22T10:23:39;23.60;1.00
262;DHT22;114;48.260;10.988;2023-07-22T10:26:06;23.80;1.00
262;DHT22;114;48.260;10.988;2023-07-22T10:28:32;23.50;1.00
262;DHT22;114;48.260;10.988;2023-07-22T10:30:59;23.50;1.00
262;DHT22;114;48.260;10.988;2023-07-22T10:33:25;23.80;1.00
262;DHT22;114;48.260;10.988;2023-07-22T10:36:08;24.10;1.00
262;DHT22;114;48.260;10.988;2023-07-22T10:38:35;23.50;1.00
262;DHT22;114;48.260;10.988;2023-07-22T10:41:11;23.40;1.00
262;DHT22;114;48.260;10.988;2023-07-22T10:43:37;23.70;1.00
262;DHT22;114;48.260;10.988;2023-07-22T10:46:12;23.70;1.00
262;DHT22;114;48.260;10.988;2023-07-22T10:48:40;23.70;1.00
262;DHT22;114;48.260;10.988;2023-07-22T10:51:09;24.00;1.00
262;DHT22;114;48.260;10.988;2023-07-22T10:53:46;24.30;1.00
262;DHT22;114;48.260;10.988;2023-07-22T10:56:14;24.30;1.00
262;DHT22;114;48.260;10.988;2023-07-22T11:04:21;24.40;1.00
262;DHT22;114;48.260;10.988;2023-07-22T11:12:17;23.40;1.00
262;DHT22;114;48.260;10.988;2023-07-22T11:14:51;24.30;1.00
262;DHT22;114;48.260;10.988;2023-07-22T11:17:26;24.30;1.00
262;DHT22;114;48.260;10.988;2023-07-22T11:19:54;24.20;1.00
262;DHT22;114;48.260;10.988;2023-07-22T11:22:20;24.40;1.00
262;DHT22;114;48.260;10.988;2023-07-22T11:24:45;24.90;1.00
262;DHT22;114;48.260;10.988;2023-07-22T11:27:12;25.50;1.00
262;DHT22;114;48.260;10.988;2023-07-22T11:29:38;25.00;1.00
262;DHT22;114;48.260;10.988;2023-07-22T11:32:04;25.30;1.00
262;DHT22;114;48.260;10.988;2023-07-22T11:34:30;25.40;1.00
262;DHT22;114;48.260;10.988;2023-07-22T11:36:57;25.50;1.00
262;DHT22;114;48.260;10.988;2023-07-22T11:39:25;25.50;1.00
262;DHT22;114;48.260;10.988;2023-07-22T11:41:51;25.50;1.00
262;DHT22;114;48.260;10.988;2023-07-22T11:44:21;25.60;1.00
262;DHT22;114;48.260;10.988;2023-07-22T11:47:01;26.00;1.00
262;DHT22;114;48.260;10.988;2023-07-22T11:49:31;25.60;1.00
262;DHT22;114;48.260;10.988;2023-07-22T11:51:59;25.30;1.00
262;DHT22;114;48.260;10.988;2023-07-22T11:54:26;25.90;1.00
262;DHT22;114;48.260;10.988;2023-07-22T11:56:53;26.40;1.00
262;DHT22;114;48.260;10.988;2023-07-22T11:59:54;26.30;1.00
262;DHT22;114;48.260;10.988;2023-07-22T12:02:25;26.70;1.00
262;DHT22;114;48.260;10.988;2023-07-22T12:05:00;26.90;1.00
262;DHT22;114;48.260;10.988;2023-07-22T12:07:27;28.30;1.00
262;DHT22;114;48.260;10.988;2023-07-22T12:09:54;29.60;1.00
262;DHT22;114;48.260;10.988;2023-07-22T12:12:21;32.50;1.00
262;DHT22;114;48.260;10.988;2023-07-22T12:14:46;31.60;1.00
262;DHT22;114;48.260;10.988;2023-07-22T12:17:12;32.00;1.00
262;DHT22;114;48.260;10.988;2023-07-22T12:19:38;31.30;1.00
262;DHT22;114;48.260;10.988;2023-07-22T12:22:04;28.60;1.00
262;DHT22;114;48.260;10.988;2023-07-22T12:24:30;28.50;1.00
262;DHT22;114;48.260;10.988;2023-07-22T12:26:55;29.90;1.00
262;DHT22;114;48.260;10.988;2023-07-22T12:29:21;29.50;1.00
262;DHT22;114;48.260;10.988;2023-07-22T12:31:48;30.50;1.00
262;DHT22;114;48.260;10.988;2023-07-22T12:34:13;30.20;1.00
262;DHT22;114;48.260;10.988;2023-07-22T12:36:40;29.30;1.00
262;DHT22;114;48.260;10.988;2023-07-22T12:39:07;30.40;1.00
262;DHT22;114;48.260;10.988;2023-07-22T12:41:33;31.80;1.00
262;DHT22;114;48.260;10.988;2023-07-22T12:43:59;32.50;1.00
262;DHT22;114;48.260;10.988;2023-07-22T12:46:24;32.60;1.00
262;DHT22;114;48.260;10.988;2023-07-22T12:48:50;30.90;1.00
262;DHT22;114;48.260;10.988;2023-07-22T12:51:16;30.30;1.00
262;DHT22;114;48.260;10.988;2023-07-22T12:53:41;30.80;1.00
262;DHT22;114;48.260;10.988;2023-07-22T12:56:07;31.20;1.00
262;DHT22;114;48.260;10.988;2023-07-22T12:58:33;31.60;1.00
262;DHT22;114;48.260;10.988;2023-07-22T13:00:59;31.80;1.00
262;DHT22;114;48.260;10.988;2023-07-22T13:03:25;31.40;1.00
262;DHT22;114;48.260;10.988;2023-07-22T13:05:51;29.20;1.00
262;DHT22;114;48.260;10.988;2023-07-22T13:08:17;28.80;1.00
262;DHT22;114;48.260;10.988;2023-07-22T13:10:43;27.70;1.00
262;DHT22;114;48.260;10.988;2023-07-22T13:13:10;28.60;1.00
262;DHT22;114;48.260;10.988;2023-07-22T13:15:36;31.10;1.00
262;DHT22;114;48.260;10.988;2023-07-22T13:18:02;32.60;1.00
262;DHT22;114;48.260;10.988;2023-07-22T13:20:29;31.50;1.00
262;DHT22;114;48.260;10.988;2023-07-22T13:22:55;30.40;1.00
262;DHT22;114;48.260;10.988;2023-07-22T13:25:21;30.00;1.00
262;DHT22;114;48.260;10.988;2023-07-22T13:27:46;31.40;1.00
262;DHT22;114;48.260;10.988;2023-07-22T13:30:12;32.80;1.00
262;DHT22;114;48.260;10.988;2023-07-22T13:32:39;32.20;1.00
262;DHT22;114;48.260;10.988;2023-07-22T13:35:05;33.00;1.00
262;DHT22;114;48.260;10.988;2023-07-22T13:37:31;32.20;1.00
262;DHT22;114;48.260;10.988;2023-07-22T13:39:57;32.60;1.00
262;DHT22;114;48.260;10.988;2023-07-22T13:42:23;33.00;1.00
262;DHT22;114;48.260;10.988;2023-07-22T13:44:49;33.60;1.00
262;DHT22;114;48.260;10.988;2023-07-22T13:47:15;34.50;1.00
262;DHT22;114;48.260;10.988;2023-07-22T13:49:41;33.20;1.00
262;DHT22;114;48.260;10.988;2023-07-22T13:52:07;30.60;1.00
262;DHT22;114;48.260;10.988;2023-07-22T13:54:32;31.10;1.00
262;DHT22;114;48.260;10.988;2023-07-22T13:56:58;30.90;1.00
262;DHT22;114;48.260;10.988;2023-07-22T13:59:24;30.10;1.00
262;DHT22;114;48.260;10.988;2023-07-22T14:01:50;30.10;1.00
262;DHT22;114;48.260;10.988;2023-07-22T14:04:15;30.70;1.00
262;DHT22;114;48.260;10.988;2023-07-22T14:06:41;30.10;1.00
262;DHT22;114;48.260;10.988;2023-07-22T14:09:07;32.30;1.00
262;DHT22;114;48.260;10.988;2023-07-22T14:11:32;31.70;1.00
262;DHT22;114;48.260;10.988;2023-07-22T14:13:58;30.80;1.00
262;DHT22;114;48.260;10.988;2023-07-22T14:16:24;31.10;1.00
262;DHT22;114;48.260;10.988;2023-07-22T14:18:49;32.60;1.00
262;DHT22;114;48.260;10.988;2023-07-22T14:21:17;34.40;1.00
262;DHT22;114;48.260;10.988;2023-07-22T14:23:42;35.80;1.00
262;DHT22;114;48.260;10.988;2023-07-22T14:26:09;34.80;1.00
262;DHT22;114;48.260;10.988;2023-07-22T14:28:36;34.70;1.00
262;DHT22;114;48.260;10.988;2023-07-22T14:31:02;34.60;1.00
262;DHT22;114;48.260;10.988;2023-07-22T14:33:27;35.50;1.00
262;DHT22;114;48.260;10.988;2023-07-22T14:35:53;35.50;1.00
262;DHT22;114;48.260;10.988;2023-07-22T14:38:19;35.40;1.00
262;DHT22;114;48.260;10.988;2023-07-22T14:40:45;35.10;1.00
262;DHT22;114;48.260;10.988;2023-07-22T14:43:11;33.40;1.00
262;DHT22;114;48.260;10.988;2023-07-22T14:45:37;31.50;1.00
262;DHT22;114;48.260;10.988;2023-07-22T14:48:02;29.30;1.00
262;DHT22;114;48.260;10.988;2023-07-22T14:50:28;29.00;1.00
262;DHT22;114;48.260;10.988;2023-07-22T14:52:54;29.40;1.00
262;DHT22;114;48.260;10.988;2023-07-22T14:55:19;31.20;1.00
262;DHT22;114;48.260;10.988;2023-07-22T14:57:45;32.90;1.00
262;DHT22;114;48.260;10.988;2023-07-22T15:00:12;32.20;1.00
262;DHT22;114;48.260;10.988;2023-07-22T15:02:38;32.60;1.00
262;DHT22;114;48.260;10.988;2023-07-22T15:05:04;34.40;1.00
262;DHT22;114;48.260;10.988;2023-07-22T15:07:30;34.90;1.00
262;DHT22;114;48.260;10.988;2023-07-22T15:09:57;34.00;1.00
262;DHT22;114;48.260;10.988;2023-07-22T15:12:24;34.50;1.00
262;DHT22;114;48.260;10.988;2023-07-22T15:14:49;34.50;1.00
262;DHT22;114;48.260;10.988;2023-07-22T15:17:15;33.40;1.00
262;DHT22;114;48.260;10.988;2023-07-22T15:19:41;31.70;1.00
262;DHT22;114;48.260;10.988;2023-07-22T15:22:06;29.30;1.00
262;DHT22;114;48.260;10.988;2023-07-22T15:24:32;28.90;1.00
262;DHT22;114;48.260;10.988;2023-07-22T15:26:58;29.60;1.00
262;DHT22;114;48.260;10.988;2023-07-22T15:29:24;31.50;1.00
262;DHT22;114;48.260;10.988;2023-07-22T15:31:49;31.00;1.00
262;DHT22;114;48.260;10.988;2023-07-22T15:34:15;29.90;1.00
262;DHT22;114;48.260;10.988;2023-07-22T15:36:41;30.00;1.00
262;DHT22;114;48.260;10.988;2023-07-22T15:39:06;29.90;1.00
262;DHT22;114;48.260;10.988;2023-07-22T15:41:33;31.70;1.00
262;DHT22;114;48.260;10.988;2023-07-22T15:44:00;32.50;1.00
262;DHT22;114;48.260;10.988;2023-07-22T15:46:25;32.40;1.00
262;DHT22;114;48.260;10.988;2023-07-22T15:48:51;32.40;1.00
262;DHT22;114;48.260;10.988;2023-07-22T15:51:17;32.80;1.00
262;DHT22;114;48.260;10.988;2023-07-22T15:53:43;32.80;1.00
262;DHT22;114;48.260;10.988;2023-07-22T15:56:09;31.90;1.00
262;DHT22;114;48.260;10.988;2023-07-22T15:58:34;30.80;1.00
262;DHT22;114;48.260;10.988;2023-07-22T16:01:00;30.90;1.00
262;DHT22;114;48.260;10.988;2023-07-22T16:03:26;32.00;1.00
262;DHT22;114;48.260;10.988;2023-07-22T16:05:53;31.70;1.00
262;DHT22;114;48.260;10.988;2023-07-22T16:08:18;31.70;1.00
262;DHT22;114;48.260;10.988;2023-07-22T16:10:44;30.70;1.00
262;DHT22;114;48.260;10.988;2023-07-22T16:13:10;28.70;1.00
262;DHT22;114;48.260;10.988;2023-07-22T16:15:36;27.50;1.00
262;DHT22;114;48.260;10.988;2023-07-22T16:18:02;27.70;1.00
262;DHT22;114;48.260;10.988;2023-07-22T16:20:29;28.40;1.00
262;DHT22;114;48.260;10.988;2023-07-22T16:22:55;30.20;1.00
262;DHT22;114;48.260;10.988;2023-07-22T16:25:21;30.90;1.00
262;DHT22;114;48.260;10.988;2023-07-22T16:27:46;31.80;1.00
262;DHT22;114;48.260;10.988;2023-07-22T16:30:12;31.70;1.00
262;DHT22;114;48.260;10.988;2023-07-22T16:32:38;32.90;1.00
262;DHT22;114;48.260;10.988;2023-07-22T16:35:04;31.70;1.00